sensor_id;sensor_type;location;lat;lon;timestamp;P1;durP1;ratioP1;P2;durP2;ratioP2
21501;SDS011;27639;48.674;9.242;2023-04-24T00:01:13;2.72;;;0.90;;
21501;SDS011;27639;48.674;9.242;2023-04-24T00:03:40;2.67;;;1.08;;
21501;SDS011;27639;48.674;9.242;2023-04-24T00:06:06;2.97;;;1.10;;
21501;SDS011;27639;48.674;9.242;2023-04-24T00:08:33;4.15;;;1.20;;
21501;SDS011;27639;48.674;9.242;2023-04-24T00:11:01;2.00;;;0.70;;
21501;SDS011;27639;48.674;9.242;2023-04-24T00:13:27;2.22;;;0.98;;
21501;SDS011;27639;48.674;9.242;2023-04-24T00:15:53;2.33;;;1.00;;
21501;SDS011;27639;48.674;9.242;2023-04-24T00:18:19;3.42;;;0.98;;
21501;SDS011;27639;48.674;9.242;2023-04-24T00:20:45;1.98;;;0.90;;
21501;SDS011;27639;48.674;9.242;2023-04-24T00:23:11;2.30;;;1.05;;
21501;SDS011;27639;48.674;9.242;2023-04-24T00:25:37;1.85;;;0.70;;
21501;SDS011;27639;48.674;9.242;2023-04-24T00:28:03;1.85;;;0.75;;
21501;SDS011;27639;48.674;9.242;2023-04-24T00:30:28;2.40;;;0.77;;
21501;SDS011;27639;48.674;9.242;2023-04-24T00:32:54;1.75;;;0.60;;
21501;SDS011;27639;48.674;9.242;2023-04-24T00:35:19;1.58;;;0.50;;
21501;SDS011;27639;48.674;9.242;2023-04-24T00:37:45;1.60;;;0.70;;
21501;SDS011;27639;48.674;9.242;2023-04-24T00:40:11;1.67;;;0.60;;
21501;SDS011;27639;48.674;9.242;2023-04-24T00:42:37;2.30;;;0.80;;
21501;SDS011;27639;48.674;9.242;2023-04-24T00:45:03;1.92;;;0.75;;
21501;SDS011;27639;48.674;9.242;2023-04-24T00:47:30;1.42;;;0.60;;
21501;SDS011;27639;48.674;9.242;2023-04-24T00:49:57;2.05;;;0.70;;
21501;SDS011;27639;48.674;9.242;2023-04-24T00:52:22;3.22;;;0.73;;
21501;SDS011;27639;48.674;9.242;2023-04-24T00:54:49;2.60;;;0.70;;
21501;SDS011;27639;48.674;9.242;2023-04-24T00:57:15;1.98;;;0.73;;
21501;SDS011;27639;48.674;9.242;2023-04-24T00:59:41;2.30;;;0.80;;
21501;SDS011;27639;48.674;9.242;2023-04-24T01:02:08;3.45;;;1.23;;
21501;SDS011;27639;48.674;9.242;2023-04-24T01:04:36;1.58;;;0.60;;
21501;SDS011;27639;48.674;9.242;2023-04-24T01:07:01;2.10;;;0.90;;
21501;SDS011;27639;48.674;9.242;2023-04-24T01:09:28;1.70;;;0.60;;
21501;SDS011;27639;48.674;9.242;2023-04-24T01:11:54;1.92;;;0.73;;
21501;SDS011;27639;48.674;9.242;2023-04-24T01:14:20;2.15;;;0.70;;
21501;SDS011;27639;48.674;9.242;2023-04-24T01:16:45;3.42;;;0.70;;
21501;SDS011;27639;48.674;9.242;2023-04-24T01:19:11;3.30;;;0.77;;
21501;SDS011;27639;48.674;9.242;2023-04-24T01:21:39;1.33;;;0.50;;
21501;SDS011;27639;48.674;9.242;2023-04-24T01:24:08;1.60;;;0.60;;
21501;SDS011;27639;48.674;9.242;2023-04-24T01:26:33;1.92;;;0.63;;
21501;SDS011;27639;48.674;9.242;2023-04-24T01:28:59;2.50;;;0.70;;
21501;SDS011;27639;48.674;9.242;2023-04-24T01:31:25;2.40;;;0.63;;
21501;SDS011;27639;48.674;9.242;2023-04-24T01:33:51;2.70;;;0.60;;
21501;SDS011;27639;48.674;9.242;2023-04-24T01:36:17;3.30;;;0.82;;
21501;SDS011;27639;48.674;9.242;2023-04-24T01:38:43;1.80;;;0.70;;
21501;SDS011;27639;48.674;9.242;2023-04-24T01:41:09;1.50;;;0.60;;
21501;SDS011;27639;48.674;9.242;2023-04-24T01:43:35;2.38;;;0.60;;
21501;SDS011;27639;48.674;9.242;2023-04-24T01:46:01;2.00;;;0.73;;
21501;SDS011;27639;48.674;9.242;2023-04-24T01:48:27;1.60;;;0.52;;
21501;SDS011;27639;48.674;9.242;2023-04-24T01:50:52;1.83;;;0.70;;
21501;SDS011;27639;48.674;9.242;2023-04-24T01:53:19;1.45;;;0.60;;
21501;SDS011;27639;48.674;9.242;2023-04-24T01:55:45;2.20;;;0.50;;
21501;SDS011;27639;48.674;9.242;2023-04-24T01:58:10;2.22;;;0.60;;
21501;SDS011;27639;48.674;9.242;2023-04-24T02:00:36;2.72;;;0.80;;
21501;SDS011;27639;48.674;9.242;2023-04-24T02:03:01;2.20;;;0.60;;
21501;SDS011;27639;48.674;9.242;2023-04-24T02:05:27;1.27;;;0.55;;
21501;SDS011;27639;48.674;9.242;2023-04-24T02:07:53;1.35;;;0.60;;
21501;SDS011;27639;48.674;9.242;2023-04-24T02:10:19;2.25;;;0.52;;
21501;SDS011;27639;48.674;9.242;2023-04-24T02:12:44;1.42;;;0.50;;
21501;SDS011;27639;48.674;9.242;2023-04-24T02:15:10;2.03;;;0.70;;
21501;SDS011;27639;48.674;9.242;2023-04-24T02:17:37;1.70;;;0.60;;
21501;SDS011;27639;48.674;9.242;2023-04-24T02:20:03;2.33;;;0.60;;
21501;SDS011;27639;48.674;9.242;2023-04-24T02:22:29;1.15;;;0.50;;
21501;SDS011;27639;48.674;9.242;2023-04-24T02:24:55;1.63;;;0.60;;
21501;SDS011;27639;48.674;9.242;2023-04-24T02:27:21;2.75;;;0.93;;
21501;SDS011;27639;48.674;9.242;2023-04-24T02:29:46;2.58;;;0.60;;
21501;SDS011;27639;48.674;9.242;2023-04-24T02:32:12;3.67;;;0.63;;
21501;SDS011;27639;48.674;9.242;2023-04-24T02:34:40;3.88;;;0.80;;
21501;SDS011;27639;48.674;9.242;2023-04-24T02:37:05;2.65;;;0.77;;
21501;SDS011;27639;48.674;9.242;2023-04-24T02:39:31;2.72;;;0.75;;
21501;SDS011;27639;48.674;9.242;2023-04-24T02:41:56;2.33;;;0.70;;
21501;SDS011;27639;48.674;9.242;2023-04-24T02:44:23;3.17;;;0.60;;
21501;SDS011;27639;48.674;9.242;2023-04-24T02:46:48;3.17;;;0.70;;
21501;SDS011;27639;48.674;9.242;2023-04-24T02:49:14;2.45;;;0.70;;
21501;SDS011;27639;48.674;9.242;2023-04-24T02:51:40;2.00;;;0.63;;
21501;SDS011;27639;48.674;9.242;2023-04-24T02:54:06;2.28;;;0.50;;
21501;SDS011;27639;48.674;9.242;2023-04-24T02:56:33;3.28;;;0.68;;
21501;SDS011;27639;48.674;9.242;2023-04-24T02:58:59;2.63;;;0.70;;
21501;SDS011;27639;48.674;9.242;2023-04-24T03:01:25;2.17;;;0.60;;
21501;SDS011;27639;48.674;9.242;2023-04-24T03:03:50;1.90;;;0.60;;
21501;SDS011;27639;48.674;9.242;2023-04-24T03:06:16;2.00;;;0.65;;
21501;SDS011;27639;48.674;9.242;2023-04-24T03:08:43;2.42;;;0.80;;
21501;SDS011;27639;48.674;9.242;2023-04-24T03:11:08;1.58;;;0.57;;
21501;SDS011;27639;48.674;9.242;2023-04-24T03:13:34;2.97;;;0.80;;
21501;SDS011;27639;48.674;9.242;2023-04-24T03:16:00;1.98;;;0.52;;
21501;SDS011;27639;48.674;9.242;2023-04-24T03:18:25;2.00;;;0.70;;
21501;SDS011;27639;48.674;9.242;2023-04-24T03:20:51;1.80;;;0.50;;
21501;SDS011;27639;48.674;9.242;2023-04-24T03:23:16;2.38;;;0.82;;
21501;SDS011;27639;48.674;9.242;2023-04-24T03:25:42;1.70;;;0.60;;
21501;SDS011;27639;48.674;9.242;2023-04-24T03:28:08;1.73;;;0.60;;
21501;SDS011;27639;48.674;9.242;2023-04-24T03:30:33;1.85;;;0.60;;
21501;SDS011;27639;48.674;9.242;2023-04-24T03:32:59;2.13;;;0.80;;
21501;SDS011;27639;48.674;9.242;2023-04-24T03:35:25;3.13;;;0.70;;
21501;SDS011;27639;48.674;9.242;2023-04-24T03:37:51;2.00;;;0.70;;
21501;SDS011;27639;48.674;9.242;2023-04-24T03:40:16;2.08;;;0.80;;
21501;SDS011;27639;48.674;9.242;2023-04-24T03:42:42;2.83;;;0.75;;
21501;SDS011;27639;48.674;9.242;2023-04-24T03:45:08;4.72;;;0.80;;
21501;SDS011;27639;48.674;9.242;2023-04-24T03:47:34;3.28;;;0.85;;
21501;SDS011;27639;48.674;9.242;2023-04-24T03:49:59;2.42;;;0.70;;
21501;SDS011;27639;48.674;9.242;2023-04-24T03:52:25;1.73;;;0.65;;
21501;SDS011;27639;48.674;9.242;2023-04-24T03:54:51;1.63;;;0.40;;
21501;SDS011;27639;48.674;9.242;2023-04-24T03:57:16;2.03;;;0.50;;
21501;SDS011;27639;48.674;9.242;2023-04-24T03:59:42;1.27;;;0.50;;
21501;SDS011;27639;48.674;9.242;2023-04-24T04:02:07;2.08;;;0.60;;
21501;SDS011;27639;48.674;9.242;2023-04-24T04:04:33;2.22;;;0.70;;
21501;SDS011;27639;48.674;9.242;2023-04-24T04:06:58;2.08;;;0.70;;
21501;SDS011;27639;48.674;9.242;2023-04-24T04:09:26;2.83;;;0.80;;
21501;SDS011;27639;48.674;9.242;2023-04-24T04:11:52;1.98;;;0.80;;
21501;SDS011;27639;48.674;9.242;2023-04-24T04:14:17;1.77;;;0.70;;
21501;SDS011;27639;48.674;9.242;2023-04-24T04:16:43;2.30;;;0.60;;
21501;SDS011;27639;48.674;9.242;2023-04-24T04:19:08;2.67;;;0.85;;
21501;SDS011;27639;48.674;9.242;2023-04-24T04:21:34;1.33;;;0.50;;
21501;SDS011;27639;48.674;9.242;2023-04-24T04:24:00;2.08;;;0.57;;
21501;SDS011;27639;48.674;9.242;2023-04-24T04:26:25;2.05;;;0.80;;
21501;SDS011;27639;48.674;9.242;2023-04-24T04:28:51;1.98;;;0.57;;
21501;SDS011;27639;48.674;9.242;2023-04-24T04:31:17;1.70;;;0.60;;
21501;SDS011;27639;48.674;9.242;2023-04-24T04:33:44;1.80;;;0.63;;
21501;SDS011;27639;48.674;9.242;2023-04-24T04:36:10;1.75;;;0.60;;
21501;SDS011;27639;48.674;9.242;2023-04-24T04:38:35;2.25;;;0.63;;
21501;SDS011;27639;48.674;9.242;2023-04-24T04:41:02;3.00;;;0.80;;
21501;SDS011;27639;48.674;9.242;2023-04-24T04:43:27;3.40;;;0.90;;
21501;SDS011;27639;48.674;9.242;2023-04-24T04:45:53;2.47;;;0.70;;
21501;SDS011;27639;48.674;9.242;2023-04-24T04:48:20;2.90;;;0.70;;
21501;SDS011;27639;48.674;9.242;2023-04-24T04:50:47;3.15;;;1.13;;
21501;SDS011;27639;48.674;9.242;2023-04-24T04:53:12;1.90;;;0.73;;
21501;SDS011;27639;48.674;9.242;2023-04-24T04:55:38;2.58;;;0.70;;
21501;SDS011;27639;48.674;9.242;2023-04-24T04:58:03;3.05;;;0.90;;
21501;SDS011;27639;48.674;9.242;2023-04-24T05:00:29;2.75;;;0.90;;
21501;SDS011;27639;48.674;9.242;2023-04-24T05:03:00;2.08;;;0.75;;
21501;SDS011;27639;48.674;9.242;2023-04-24T05:05:26;2.42;;;0.90;;
21501;SDS011;27639;48.674;9.242;2023-04-24T05:07:51;3.30;;;1.20;;
21501;SDS011;27639;48.674;9.242;2023-04-24T05:10:17;4.32;;;1.38;;
21501;SDS011;27639;48.674;9.242;2023-04-24T05:12:43;3.00;;;1.30;;
21501;SDS011;27639;48.674;9.242;2023-04-24T05:15:08;2.83;;;1.33;;
21501;SDS011;27639;48.674;9.242;2023-04-24T05:17:34;2.40;;;1.23;;
21501;SDS011;27639;48.674;9.242;2023-04-24T05:20:00;2.33;;;1.15;;
21501;SDS011;27639;48.674;9.242;2023-04-24T05:22:27;3.08;;;1.15;;
21501;SDS011;27639;48.674;9.242;2023-04-24T05:24:53;2.97;;;1.13;;
21501;SDS011;27639;48.674;9.242;2023-04-24T05:27:18;3.20;;;1.30;;
21501;SDS011;27639;48.674;9.242;2023-04-24T05:29:44;2.72;;;1.20;;
21501;SDS011;27639;48.674;9.242;2023-04-24T05:32:10;2.47;;;1.30;;
21501;SDS011;27639;48.674;9.242;2023-04-24T05:34:36;2.95;;;1.42;;
21501;SDS011;27639;48.674;9.242;2023-04-24T05:37:02;3.13;;;1.58;;
21501;SDS011;27639;48.674;9.242;2023-04-24T05:39:28;2.83;;;1.30;;
21501;SDS011;27639;48.674;9.242;2023-04-24T05:41:54;2.95;;;1.65;;
21501;SDS011;27639;48.674;9.242;2023-04-24T05:44:22;3.63;;;1.60;;
21501;SDS011;27639;48.674;9.242;2023-04-24T05:46:48;2.88;;;1.50;;
21501;SDS011;27639;48.674;9.242;2023-04-24T05:49:14;3.33;;;1.40;;
21501;SDS011;27639;48.674;9.242;2023-04-24T05:51:39;3.42;;;1.50;;
21501;SDS011;27639;48.674;9.242;2023-04-24T05:54:05;2.70;;;1.20;;
21501;SDS011;27639;48.674;9.242;2023-04-24T05:56:30;3.17;;;1.20;;
21501;SDS011;27639;48.674;9.242;2023-04-24T05:58:56;2.65;;;1.33;;
21501;SDS011;27639;48.674;9.242;2023-04-24T06:01:21;2.50;;;1.35;;
21501;SDS011;27639;48.674;9.242;2023-04-24T06:03:47;3.03;;;1.23;;
21501;SDS011;27639;48.674;9.242;2023-04-24T06:06:13;4.65;;;1.77;;
21501;SDS011;27639;48.674;9.242;2023-04-24T06:08:39;3.20;;;1.60;;
21501;SDS011;27639;48.674;9.242;2023-04-24T06:11:04;3.35;;;1.65;;
21501;SDS011;27639;48.674;9.242;2023-04-24T06:13:30;3.38;;;1.88;;
21501;SDS011;27639;48.674;9.242;2023-04-24T06:15:55;3.80;;;1.90;;
21501;SDS011;27639;48.674;9.242;2023-04-24T06:18:21;3.28;;;1.70;;
21501;SDS011;27639;48.674;9.242;2023-04-24T06:20:46;5.40;;;2.10;;
21501;SDS011;27639;48.674;9.242;2023-04-24T06:23:12;3.70;;;1.70;;
21501;SDS011;27639;48.674;9.242;2023-04-24T06:25:38;3.88;;;1.60;;
21501;SDS011;27639;48.674;9.242;2023-04-24T06:28:03;3.88;;;1.63;;
21501;SDS011;27639;48.674;9.242;2023-04-24T06:30:30;2.80;;;1.38;;
21501;SDS011;27639;48.674;9.242;2023-04-24T06:32:56;3.15;;;1.50;;
21501;SDS011;27639;48.674;9.242;2023-04-24T06:35:21;2.72;;;1.30;;
21501;SDS011;27639;48.674;9.242;2023-04-24T06:37:47;2.90;;;1.27;;
21501;SDS011;27639;48.674;9.242;2023-04-24T06:40:12;2.50;;;1.30;;
21501;SDS011;27639;48.674;9.242;2023-04-24T06:42:38;3.17;;;1.30;;
21501;SDS011;27639;48.674;9.242;2023-04-24T06:45:04;2.35;;;1.00;;
21501;SDS011;27639;48.674;9.242;2023-04-24T06:47:30;2.80;;;1.30;;
21501;SDS011;27639;48.674;9.242;2023-04-24T06:49:56;2.17;;;0.98;;
21501;SDS011;27639;48.674;9.242;2023-04-24T06:52:22;1.83;;;0.70;;
21501;SDS011;27639;48.674;9.242;2023-04-24T06:54:47;1.83;;;0.80;;
21501;SDS011;27639;48.674;9.242;2023-04-24T06:57:13;2.30;;;0.82;;
21501;SDS011;27639;48.674;9.242;2023-04-24T06:59:38;3.03;;;0.85;;
21501;SDS011;27639;48.674;9.242;2023-04-24T07:02:04;2.30;;;0.90;;
21501;SDS011;27639;48.674;9.242;2023-04-24T07:04:30;3.13;;;0.90;;
21501;SDS011;27639;48.674;9.242;2023-04-24T07:06:56;2.42;;;1.05;;
21501;SDS011;27639;48.674;9.242;2023-04-24T07:09:23;2.80;;;1.02;;
21501;SDS011;27639;48.674;9.242;2023-04-24T07:11:50;2.50;;;1.20;;
21501;SDS011;27639;48.674;9.242;2023-04-24T07:14:16;3.70;;;1.20;;
21501;SDS011;27639;48.674;9.242;2023-04-24T07:16:42;2.30;;;1.00;;
21501;SDS011;27639;48.674;9.242;2023-04-24T07:19:08;2.45;;;1.10;;
21501;SDS011;27639;48.674;9.242;2023-04-24T07:21:34;2.35;;;1.13;;
21501;SDS011;27639;48.674;9.242;2023-04-24T07:24:01;3.28;;;1.20;;
21501;SDS011;27639;48.674;9.242;2023-04-24T07:26:30;2.42;;;1.20;;
21501;SDS011;27639;48.674;9.242;2023-04-24T07:28:55;3.22;;;1.58;;
21501;SDS011;27639;48.674;9.242;2023-04-24T07:31:21;3.60;;;1.30;;
21501;SDS011;27639;48.674;9.242;2023-04-24T07:33:47;5.07;;;1.50;;
21501;SDS011;27639;48.674;9.242;2023-04-24T07:36:13;2.85;;;1.33;;
21501;SDS011;27639;48.674;9.242;2023-04-24T07:38:44;2.40;;;1.00;;
21501;SDS011;27639;48.674;9.242;2023-04-24T07:41:10;2.50;;;1.20;;
21501;SDS011;27639;48.674;9.242;2023-04-24T07:43:36;2.08;;;1.02;;
21501;SDS011;27639;48.674;9.242;2023-04-24T07:46:01;1.88;;;0.80;;
21501;SDS011;27639;48.674;9.242;2023-04-24T07:48:27;2.40;;;0.90;;
21501;SDS011;27639;48.674;9.242;2023-04-24T07:50:53;2.08;;;0.88;;
21501;SDS011;27639;48.674;9.242;2023-04-24T07:53:18;2.53;;;0.80;;
21501;SDS011;27639;48.674;9.242;2023-04-24T07:55:44;2.58;;;1.00;;
21501;SDS011;27639;48.674;9.242;2023-04-24T07:58:10;2.03;;;0.98;;
21501;SDS011;27639;48.674;9.242;2023-04-24T08:00:35;2.00;;;0.90;;
21501;SDS011;27639;48.674;9.242;2023-04-24T08:03:01;3.80;;;1.10;;
21501;SDS011;27639;48.674;9.242;2023-04-24T08:05:27;2.83;;;1.00;;
21501;SDS011;27639;48.674;9.242;2023-04-24T08:07:53;2.45;;;1.00;;
21501;SDS011;27639;48.674;9.242;2023-04-24T08:10:20;4.07;;;1.10;;
21501;SDS011;27639;48.674;9.242;2023-04-24T08:12:47;2.70;;;1.02;;
21501;SDS011;27639;48.674;9.242;2023-04-24T08:15:12;2.58;;;1.10;;
21501;SDS011;27639;48.674;9.242;2023-04-24T08:17:38;3.38;;;0.93;;
21501;SDS011;27639;48.674;9.242;2023-04-24T08:20:04;2.22;;;1.10;;
21501;SDS011;27639;48.674;9.242;2023-04-24T08:22:30;2.20;;;1.00;;
21501;SDS011;27639;48.674;9.242;2023-04-24T08:24:56;2.30;;;1.00;;
21501;SDS011;27639;48.674;9.242;2023-04-24T08:27:25;3.40;;;1.20;;
21501;SDS011;27639;48.674;9.242;2023-04-24T08:29:52;2.95;;;1.20;;
21501;SDS011;27639;48.674;9.242;2023-04-24T08:32:18;3.65;;;1.20;;
21501;SDS011;27639;48.674;9.242;2023-04-24T08:34:44;2.60;;;1.13;;
21501;SDS011;27639;48.674;9.242;2023-04-24T08:37:10;2.97;;;1.45;;
21501;SDS011;27639;48.674;9.242;2023-04-24T08:39:36;2.85;;;1.30;;
21501;SDS011;27639;48.674;9.242;2023-04-24T08:42:02;2.20;;;1.00;;
21501;SDS011;27639;48.674;9.242;2023-04-24T08:44:31;3.13;;;1.10;;
21501;SDS011;27639;48.674;9.242;2023-04-24T08:46:57;3.03;;;1.33;;
21501;SDS011;27639;48.674;9.242;2023-04-24T08:49:23;3.95;;;1.33;;
21501;SDS011;27639;48.674;9.242;2023-04-24T08:51:50;4.47;;;1.40;;
21501;SDS011;27639;48.674;9.242;2023-04-24T08:54:17;3.47;;;1.42;;
21501;SDS011;27639;48.674;9.242;2023-04-24T08:56:44;5.38;;;1.50;;
21501;SDS011;27639;48.674;9.242;2023-04-24T08:59:10;3.35;;;1.38;;
21501;SDS011;27639;48.674;9.242;2023-04-24T09:01:36;2.80;;;1.38;;
21501;SDS011;27639;48.674;9.242;2023-04-24T09:04:03;3.28;;;1.30;;
21501;SDS011;27639;48.674;9.242;2023-04-24T09:06:29;4.25;;;1.40;;
21501;SDS011;27639;48.674;9.242;2023-04-24T09:08:55;3.70;;;1.50;;
21501;SDS011;27639;48.674;9.242;2023-04-24T09:11:25;4.57;;;1.60;;
21501;SDS011;27639;48.674;9.242;2023-04-24T09:13:51;2.83;;;1.17;;
21501;SDS011;27639;48.674;9.242;2023-04-24T09:16:18;3.13;;;1.17;;
21501;SDS011;27639;48.674;9.242;2023-04-24T09:18:44;3.15;;;1.25;;
21501;SDS011;27639;48.674;9.242;2023-04-24T09:21:10;5.90;;;1.48;;
21501;SDS011;27639;48.674;9.242;2023-04-24T09:23:36;3.08;;;1.40;;
21501;SDS011;27639;48.674;9.242;2023-04-24T09:26:02;3.17;;;1.30;;
21501;SDS011;27639;48.674;9.242;2023-04-24T09:28:35;2.60;;;1.10;;
21501;SDS011;27639;48.674;9.242;2023-04-24T09:31:23;2.72;;;1.15;;
21501;SDS011;27639;48.674;9.242;2023-04-24T09:36:29;4.72;;;1.60;;
21501;SDS011;27639;48.674;9.242;2023-04-24T09:39:00;3.42;;;1.00;;
21501;SDS011;27639;48.674;9.242;2023-04-24T09:41:26;2.28;;;0.90;;
21501;SDS011;27639;48.674;9.242;2023-04-24T09:43:56;3.13;;;1.10;;
21501;SDS011;27639;48.674;9.242;2023-04-24T09:46:29;3.35;;;1.10;;
21501;SDS011;27639;48.674;9.242;2023-04-24T09:48:56;2.55;;;1.00;;
21501;SDS011;27639;48.674;9.242;2023-04-24T09:51:34;2.47;;;1.10;;
21501;SDS011;27639;48.674;9.242;2023-04-24T09:54:05;2.70;;;1.10;;
21501;SDS011;27639;48.674;9.242;2023-04-24T09:56:44;2.40;;;1.05;;
21501;SDS011;27639;48.674;9.242;2023-04-24T09:59:10;5.05;;;1.15;;
21501;SDS011;27639;48.674;9.242;2023-04-24T10:01:36;4.00;;;0.88;;
21501;SDS011;27639;48.674;9.242;2023-04-24T10:04:03;3.88;;;1.00;;
21501;SDS011;27639;48.674;9.242;2023-04-24T10:06:35;2.60;;;0.90;;
21501;SDS011;27639;48.674;9.242;2023-04-24T10:09:01;3.60;;;1.00;;
21501;SDS011;27639;48.674;9.242;2023-04-24T10:11:28;3.58;;;1.02;;
21501;SDS011;27639;48.674;9.242;2023-04-24T10:13:55;3.38;;;1.00;;
21501;SDS011;27639;48.674;9.242;2023-04-24T10:16:22;2.97;;;1.02;;
21501;SDS011;27639;48.674;9.242;2023-04-24T10:18:48;2.85;;;1.00;;
21501;SDS011;27639;48.674;9.242;2023-04-24T10:21:14;3.83;;;0.95;;
21501;SDS011;27639;48.674;9.242;2023-04-24T10:23:41;2.08;;;0.80;;
21501;SDS011;27639;48.674;9.242;2023-04-24T10:26:10;2.08;;;0.90;;
21501;SDS011;27639;48.674;9.242;2023-04-24T10:28:42;2.40;;;0.65;;
21501;SDS011;27639;48.674;9.242;2023-04-24T10:31:12;2.30;;;0.90;;
21501;SDS011;27639;48.674;9.242;2023-04-24T10:33:40;2.67;;;0.98;;
21501;SDS011;27639;48.674;9.242;2023-04-24T10:36:07;3.22;;;1.00;;
21501;SDS011;27639;48.674;9.242;2023-04-24T10:38:34;4.45;;;1.00;;
21501;SDS011;27639;48.674;9.242;2023-04-24T10:41:08;2.53;;;0.90;;
21501;SDS011;27639;48.674;9.242;2023-04-24T10:43:35;2.85;;;0.80;;
21501;SDS011;27639;48.674;9.242;2023-04-24T10:46:04;2.20;;;0.70;;
21501;SDS011;27639;48.674;9.242;2023-04-24T10:48:31;2.05;;;0.98;;
21501;SDS011;27639;48.674;9.242;2023-04-24T10:50:57;2.20;;;0.80;;
21501;SDS011;27639;48.674;9.242;2023-04-24T10:53:24;1.98;;;0.85;;
21501;SDS011;27639;48.674;9.242;2023-04-24T11:01:03;2.50;;;1.00;;
21501;SDS011;27639;48.674;9.242;2023-04-24T11:03:29;2.67;;;1.10;;
21501;SDS011;27639;48.674;9.242;2023-04-24T11:06:00;3.67;;;1.02;;
21501;SDS011;27639;48.674;9.242;2023-04-24T11:08:42;2.00;;;0.90;;
21501;SDS011;27639;48.674;9.242;2023-04-24T11:11:16;2.33;;;0.70;;
21501;SDS011;27639;48.674;9.242;2023-04-24T11:18:59;2.05;;;0.80;;
21501;SDS011;27639;48.674;9.242;2023-04-24T11:21:26;2.50;;;1.10;;
21501;SDS011;27639;48.674;9.242;2023-04-24T11:24:37;4.20;;;0.90;;
21501;SDS011;27639;48.674;9.242;2023-04-24T11:29:42;2.50;;;1.10;;
21501;SDS011;27639;48.674;9.242;2023-04-24T11:34:50;3.13;;;1.23;;
21501;SDS011;27639;48.674;9.242;2023-04-24T11:37:18;3.17;;;1.27;;
21501;SDS011;27639;48.674;9.242;2023-04-24T11:39:43;2.33;;;1.10;;
21501;SDS011;27639;48.674;9.242;2023-04-24T11:42:09;2.90;;;1.10;;
21501;SDS011;27639;48.674;9.242;2023-04-24T11:44:35;2.13;;;0.82;;
21501;SDS011;27639;48.674;9.242;2023-04-24T11:47:04;2.72;;;0.90;;
21501;SDS011;27639;48.674;9.242;2023-04-24T11:49:32;2.08;;;0.98;;
21501;SDS011;27639;48.674;9.242;2023-04-24T11:51:57;3.42;;;0.98;;
21501;SDS011;27639;48.674;9.242;2023-04-24T11:54:25;2.60;;;0.98;;
21501;SDS011;27639;48.674;9.242;2023-04-24T11:56:51;4.30;;;1.10;;
21501;SDS011;27639;48.674;9.242;2023-04-24T11:59:16;2.15;;;0.73;;
21501;SDS011;27639;48.674;9.242;2023-04-24T12:01:43;1.42;;;0.68;;
21501;SDS011;27639;48.674;9.242;2023-04-24T12:04:12;1.63;;;0.68;;
21501;SDS011;27639;48.674;9.242;2023-04-24T12:06:39;2.55;;;0.80;;
21501;SDS011;27639;48.674;9.242;2023-04-24T12:09:04;3.60;;;1.00;;
21501;SDS011;27639;48.674;9.242;2023-04-24T12:11:30;3.33;;;0.90;;
21501;SDS011;27639;48.674;9.242;2023-04-24T12:13:56;2.45;;;1.00;;
21501;SDS011;27639;48.674;9.242;2023-04-24T12:16:21;2.28;;;1.08;;
21501;SDS011;27639;48.674;9.242;2023-04-24T12:18:47;3.75;;;1.00;;
21501;SDS011;27639;48.674;9.242;2023-04-24T12:21:20;2.75;;;1.00;;
21501;SDS011;27639;48.674;9.242;2023-04-24T12:23:46;2.47;;;1.00;;
21501;SDS011;27639;48.674;9.242;2023-04-24T12:26:16;3.60;;;1.20;;
21501;SDS011;27639;48.674;9.242;2023-04-24T12:28:45;2.13;;;0.98;;
21501;SDS011;27639;48.674;9.242;2023-04-24T12:31:12;3.72;;;1.20;;
21501;SDS011;27639;48.674;9.242;2023-04-24T12:33:37;2.42;;;1.17;;
21501;SDS011;27639;48.674;9.242;2023-04-24T12:36:03;3.45;;;1.60;;
21501;SDS011;27639;48.674;9.242;2023-04-24T12:38:30;2.80;;;1.10;;
21501;SDS011;27639;48.674;9.242;2023-04-24T12:41:02;2.72;;;1.05;;
21501;SDS011;27639;48.674;9.242;2023-04-24T12:43:29;2.92;;;1.05;;
21501;SDS011;27639;48.674;9.242;2023-04-24T12:45:55;2.40;;;1.02;;
21501;SDS011;27639;48.674;9.242;2023-04-24T12:48:21;2.78;;;1.00;;
21501;SDS011;27639;48.674;9.242;2023-04-24T12:50:47;3.20;;;1.10;;
21501;SDS011;27639;48.674;9.242;2023-04-24T12:53:14;2.70;;;1.20;;
21501;SDS011;27639;48.674;9.242;2023-04-24T12:55:40;3.60;;;1.13;;
21501;SDS011;27639;48.674;9.242;2023-04-24T12:58:06;2.53;;;1.17;;
21501;SDS011;27639;48.674;9.242;2023-04-24T13:00:32;3.83;;;1.23;;
21501;SDS011;27639;48.674;9.242;2023-04-24T13:02:58;4.57;;;1.00;;
21501;SDS011;27639;48.674;9.242;2023-04-24T13:05:23;2.90;;;1.10;;
21501;SDS011;27639;48.674;9.242;2023-04-24T13:07:49;4.35;;;1.10;;
21501;SDS011;27639;48.674;9.242;2023-04-24T13:10:15;2.65;;;1.20;;
21501;SDS011;27639;48.674;9.242;2023-04-24T13:12:41;2.55;;;1.10;;
21501;SDS011;27639;48.674;9.242;2023-04-24T13:15:10;3.00;;;1.10;;
21501;SDS011;27639;48.674;9.242;2023-04-24T13:17:35;2.50;;;1.02;;
21501;SDS011;27639;48.674;9.242;2023-04-24T13:20:01;4.20;;;1.33;;
21501;SDS011;27639;48.674;9.242;2023-04-24T13:22:27;3.85;;;1.35;;
21501;SDS011;27639;48.674;9.242;2023-04-24T13:24:53;2.75;;;1.27;;
21501;SDS011;27639;48.674;9.242;2023-04-24T13:27:19;2.42;;;1.10;;
21501;SDS011;27639;48.674;9.242;2023-04-24T13:29:45;2.13;;;1.00;;
21501;SDS011;27639;48.674;9.242;2023-04-24T13:32:10;2.80;;;1.33;;
21501;SDS011;27639;48.674;9.242;2023-04-24T13:34:36;2.40;;;1.10;;
21501;SDS011;27639;48.674;9.242;2023-04-24T13:37:02;3.17;;;1.23;;
21501;SDS011;27639;48.674;9.242;2023-04-24T13:39:28;3.15;;;1.35;;
21501;SDS011;27639;48.674;9.242;2023-04-24T13:41:54;2.63;;;1.20;;
21501;SDS011;27639;48.674;9.242;2023-04-24T13:44:20;2.38;;;1.20;;
21501;SDS011;27639;48.674;9.242;2023-04-24T13:46:47;2.78;;;1.30;;
21501;SDS011;27639;48.674;9.242;2023-04-24T13:49:15;2.58;;;1.20;;
21501;SDS011;27639;48.674;9.242;2023-04-24T13:51:41;2.70;;;1.20;;
21501;SDS011;27639;48.674;9.242;2023-04-24T13:54:07;3.20;;;1.40;;
21501;SDS011;27639;48.674;9.242;2023-04-24T13:56:33;3.13;;;1.20;;
21501;SDS011;27639;48.674;9.242;2023-04-24T13:58:58;2.97;;;1.48;;
21501;SDS011;27639;48.674;9.242;2023-04-24T14:01:24;2.95;;;1.48;;
21501;SDS011;27639;48.674;9.242;2023-04-24T14:03:50;3.45;;;1.50;;
21501;SDS011;27639;48.674;9.242;2023-04-24T14:06:20;3.30;;;1.40;;
21501;SDS011;27639;48.674;9.242;2023-04-24T14:08:46;2.83;;;1.33;;
21501;SDS011;27639;48.674;9.242;2023-04-24T14:11:13;2.42;;;1.23;;
21501;SDS011;27639;48.674;9.242;2023-04-24T14:13:39;2.83;;;1.20;;
21501;SDS011;27639;48.674;9.242;2023-04-24T14:16:06;2.65;;;1.27;;
21501;SDS011;27639;48.674;9.242;2023-04-24T14:18:32;2.92;;;1.40;;
21501;SDS011;27639;48.674;9.242;2023-04-24T14:20:57;3.15;;;1.48;;
21501;SDS011;27639;48.674;9.242;2023-04-24T14:23:24;2.90;;;1.42;;
21501;SDS011;27639;48.674;9.242;2023-04-24T14:25:49;3.65;;;1.38;;
21501;SDS011;27639;48.674;9.242;2023-04-24T14:28:17;2.92;;;1.40;;
21501;SDS011;27639;48.674;9.242;2023-04-24T14:30:44;3.00;;;1.65;;
21501;SDS011;27639;48.674;9.242;2023-04-24T14:33:10;3.58;;;1.50;;
21501;SDS011;27639;48.674;9.242;2023-04-24T14:35:36;3.53;;;1.42;;
21501;SDS011;27639;48.674;9.242;2023-04-24T14:38:02;4.95;;;1.40;;
21501;SDS011;27639;48.674;9.242;2023-04-24T14:40:28;4.25;;;1.70;;
21501;SDS011;27639;48.674;9.242;2023-04-24T14:42:53;3.05;;;1.67;;
21501;SDS011;27639;48.674;9.242;2023-04-24T14:45:19;4.20;;;1.60;;
21501;SDS011;27639;48.674;9.242;2023-04-24T14:47:45;3.42;;;1.77;;
21501;SDS011;27639;48.674;9.242;2023-04-24T14:50:10;3.40;;;1.80;;
21501;SDS011;27639;48.674;9.242;2023-04-24T14:52:37;3.17;;;1.50;;
21501;SDS011;27639;48.674;9.242;2023-04-24T14:55:03;3.00;;;1.42;;
21501;SDS011;27639;48.674;9.242;2023-04-24T14:57:29;3.97;;;1.58;;
21501;SDS011;27639;48.674;9.242;2023-04-24T14:59:55;4.07;;;1.92;;
21501;SDS011;27639;48.674;9.242;2023-04-24T15:02:20;2.97;;;1.60;;